sensor_id;sensor_type;location;lat;lon;timestamp;P1;durP1;ratioP1;P2;durP2;ratioP2
15699;SDS011;7950;42.744;23.174;2022-11-21T00:01:33;10.87;;;9.57;;
15699;SDS011;7950;42.744;23.174;2022-11-21T00:04:02;11.43;;;9.57;;
15699;SDS011;7950;42.744;23.174;2022-11-21T00:06:30;9.67;;;8.67;;
15699;SDS011;7950;42.744;23.174;2022-11-21T00:08:58;10.77;;;9.67;;
15699;SDS011;7950;42.744;23.174;2022-11-21T00:11:26;11.93;;;9.57;;
15699;SDS011;7950;42.744;23.174;2022-11-21T00:13:56;13.70;;;11.27;;
15699;SDS011;7950;42.744;23.174;2022-11-21T00:16:24;11.10;;;9.60;;
15699;SDS011;7950;42.744;23.174;2022-11-21T00:18:53;12.17;;;9.90;;
15699;SDS011;7950;42.744;23.174;2022-11-21T00:21:21;10.60;;;9.30;;
15699;SDS011;7950;42.744;23.174;2022-11-21T00:23:50;16.10;;;11.30;;
15699;SDS011;7950;42.744;23.174;2022-11-21T00:26:19;12.83;;;10.57;;
15699;SDS011;7950;42.744;23.174;2022-11-21T00:28:47;8.07;;;6.60;;
15699;SDS011;7950;42.744;23.174;2022-11-21T00:31:21;6.63;;;5.73;;
15699;SDS011;7950;42.744;23.174;2022-11-21T00:33:50;6.63;;;5.93;;
15699;SDS011;7950;42.744;23.174;2022-11-21T00:36:18;8.60;;;6.90;;
15699;SDS011;7950;42.744;23.174;2022-11-21T00:38:47;10.60;;;7.07;;
15699;SDS011;7950;42.744;23.174;2022-11-21T00:41:15;10.40;;;7.17;;
15699;SDS011;7950;42.744;23.174;2022-11-21T00:43:43;10.47;;;6.63;;
15699;SDS011;7950;42.744;23.174;2022-11-21T00:46:11;8.40;;;6.60;;
15699;SDS011;7950;42.744;23.174;2022-11-21T00:48:41;8.27;;;7.10;;
15699;SDS011;7950;42.744;23.174;2022-11-21T00:51:09;8.33;;;6.70;;
15699;SDS011;7950;42.744;23.174;2022-11-21T00:53:37;8.80;;;7.90;;
15699;SDS011;7950;42.744;23.174;2022-11-21T00:56:06;10.13;;;8.00;;
15699;SDS011;7950;42.744;23.174;2022-11-21T00:58:34;11.67;;;8.70;;
15699;SDS011;7950;42.744;23.174;2022-11-21T01:01:03;8.90;;;7.03;;
15699;SDS011;7950;42.744;23.174;2022-11-21T01:03:33;9.90;;;7.27;;
15699;SDS011;7950;42.744;23.174;2022-11-21T01:06:03;10.87;;;7.80;;
15699;SDS011;7950;42.744;23.174;2022-11-21T01:08:33;7.93;;;6.80;;
15699;SDS011;7950;42.744;23.174;2022-11-21T01:11:03;8.77;;;7.20;;
15699;SDS011;7950;42.744;23.174;2022-11-21T01:13:32;8.30;;;7.00;;
15699;SDS011;7950;42.744;23.174;2022-11-21T01:16:01;8.30;;;7.37;;
15699;SDS011;7950;42.744;23.174;2022-11-21T01:18:31;7.33;;;6.37;;
15699;SDS011;7950;42.744;23.174;2022-11-21T01:20:59;10.17;;;6.47;;
15699;SDS011;7950;42.744;23.174;2022-11-21T01:23:29;7.10;;;5.63;;
15699;SDS011;7950;42.744;23.174;2022-11-21T01:25:59;8.37;;;7.23;;
15699;SDS011;7950;42.744;23.174;2022-11-21T01:28:28;7.37;;;6.57;;
15699;SDS011;7950;42.744;23.174;2022-11-21T01:31:01;7.07;;;5.97;;
15699;SDS011;7950;42.744;23.174;2022-11-21T01:33:31;8.23;;;6.27;;
15699;SDS011;7950;42.744;23.174;2022-11-21T01:36:04;9.13;;;6.53;;
15699;SDS011;7950;42.744;23.174;2022-11-21T01:38:35;7.97;;;6.37;;
15699;SDS011;7950;42.744;23.174;2022-11-21T01:41:04;7.53;;;6.33;;
15699;SDS011;7950;42.744;23.174;2022-11-21T01:43:32;8.43;;;6.10;;
15699;SDS011;7950;42.744;23.174;2022-11-21T01:46:03;6.83;;;6.10;;
15699;SDS011;7950;42.744;23.174;2022-11-21T01:48:34;7.33;;;6.30;;
15699;SDS011;7950;42.744;23.174;2022-11-21T01:51:06;8.03;;;5.87;;
15699;SDS011;7950;42.744;23.174;2022-11-21T01:53:41;8.80;;;5.93;;
15699;SDS011;7950;42.744;23.174;2022-11-21T01:56:31;8.30;;;5.53;;
15699;SDS011;7950;42.744;23.174;2022-11-21T02:02:28;5.90;;;5.30;;
15699;SDS011;7950;42.744;23.174;2022-11-21T02:05:00;6.60;;;5.90;;
15699;SDS011;7950;42.744;23.174;2022-11-21T02:07:32;7.70;;;5.53;;
15699;SDS011;7950;42.744;23.174;2022-11-21T02:10:08;6.43;;;5.30;;
15699;SDS011;7950;42.744;23.174;2022-11-21T02:12:37;6.80;;;6.10;;
15699;SDS011;7950;42.744;23.174;2022-11-21T02:15:10;9.23;;;5.43;;
15699;SDS011;7950;42.744;23.174;2022-11-21T02:17:39;6.07;;;4.20;;
15699;SDS011;7950;42.744;23.174;2022-11-21T02:20:08;6.77;;;4.80;;
15699;SDS011;7950;42.744;23.174;2022-11-21T02:22:39;5.10;;;4.60;;
15699;SDS011;7950;42.744;23.174;2022-11-21T02:25:16;5.67;;;1.90;;
15699;SDS011;7950;42.744;23.174;2022-11-21T02:27:46;2.70;;;1.63;;
15699;SDS011;7950;42.744;23.174;2022-11-21T02:30:16;1.70;;;1.33;;
15699;SDS011;7950;42.744;23.174;2022-11-21T02:32:45;5.67;;;1.80;;
15699;SDS011;7950;42.744;23.174;2022-11-21T02:35:14;5.70;;;1.87;;
15699;SDS011;7950;42.744;23.174;2022-11-21T02:37:45;2.70;;;1.60;;
15699;SDS011;7950;42.744;23.174;2022-11-21T02:40:19;3.07;;;1.80;;
15699;SDS011;7950;42.744;23.174;2022-11-21T02:42:56;3.87;;;1.73;;
15699;SDS011;7950;42.744;23.174;2022-11-21T02:45:30;5.80;;;1.70;;
15699;SDS011;7950;42.744;23.174;2022-11-21T02:48:01;1.80;;;1.57;;
15699;SDS011;7950;42.744;23.174;2022-11-21T02:50:30;2.43;;;1.77;;
15699;SDS011;7950;42.744;23.174;2022-11-21T02:53:00;6.97;;;2.60;;
15699;SDS011;7950;42.744;23.174;2022-11-21T02:55:29;5.90;;;2.23;;
15699;SDS011;7950;42.744;23.174;2022-11-21T02:57:58;6.30;;;2.30;;
15699;SDS011;7950;42.744;23.174;2022-11-21T03:00:30;5.73;;;2.53;;
15699;SDS011;7950;42.744;23.174;2022-11-21T03:02:59;10.67;;;3.00;;
15699;SDS011;7950;42.744;23.174;2022-11-21T03:05:27;4.10;;;2.27;;
15699;SDS011;7950;42.744;23.174;2022-11-21T03:07:56;5.30;;;2.67;;
15699;SDS011;7950;42.744;23.174;2022-11-21T03:10:25;8.10;;;2.70;;
15699;SDS011;7950;42.744;23.174;2022-11-21T03:12:54;13.97;;;6.10;;
15699;SDS011;7950;42.744;23.174;2022-11-21T03:15:27;3.93;;;3.20;;
15699;SDS011;7950;42.744;23.174;2022-11-21T03:17:56;4.20;;;3.17;;
15699;SDS011;7950;42.744;23.174;2022-11-21T03:20:26;5.37;;;3.47;;
15699;SDS011;7950;42.744;23.174;2022-11-21T03:22:54;3.17;;;2.63;;
15699;SDS011;7950;42.744;23.174;2022-11-21T03:25:23;6.70;;;3.43;;
15699;SDS011;7950;42.744;23.174;2022-11-21T03:27:51;8.13;;;3.07;;
15699;SDS011;7950;42.744;23.174;2022-11-21T03:30:22;7.20;;;2.90;;
15699;SDS011;7950;42.744;23.174;2022-11-21T03:32:53;4.87;;;2.63;;
15699;SDS011;7950;42.744;23.174;2022-11-21T03:35:22;7.47;;;2.50;;
15699;SDS011;7950;42.744;23.174;2022-11-21T03:37:50;7.43;;;2.57;;
15699;SDS011;7950;42.744;23.174;2022-11-21T03:40:19;5.10;;;2.00;;
15699;SDS011;7950;42.744;23.174;2022-11-21T03:42:47;5.33;;;2.07;;
15699;SDS011;7950;42.744;23.174;2022-11-21T03:45:15;7.10;;;2.30;;
15699;SDS011;7950;42.744;23.174;2022-11-21T03:47:45;6.30;;;2.93;;
15699;SDS011;7950;42.744;23.174;2022-11-21T03:50:13;3.20;;;1.70;;
15699;SDS011;7950;42.744;23.174;2022-11-21T03:52:44;8.33;;;2.07;;
15699;SDS011;7950;42.744;23.174;2022-11-21T03:55:12;4.57;;;1.93;;
15699;SDS011;7950;42.744;23.174;2022-11-21T04:00:33;7.30;;;1.90;;
15699;SDS011;7950;42.744;23.174;2022-11-21T04:03:03;8.17;;;2.20;;
15699;SDS011;7950;42.744;23.174;2022-11-21T04:05:31;5.57;;;2.30;;
15699;SDS011;7950;42.744;23.174;2022-11-21T04:07:59;9.00;;;2.50;;
15699;SDS011;7950;42.744;23.174;2022-11-21T04:10:28;6.93;;;2.30;;
15699;SDS011;7950;42.744;23.174;2022-11-21T04:12:56;8.30;;;2.40;;
15699;SDS011;7950;42.744;23.174;2022-11-21T04:15:24;7.87;;;2.40;;
15699;SDS011;7950;42.744;23.174;2022-11-21T04:17:52;5.70;;;3.10;;
15699;SDS011;7950;42.744;23.174;2022-11-21T04:20:22;8.23;;;2.87;;
15699;SDS011;7950;42.744;23.174;2022-11-21T04:22:50;8.27;;;2.87;;
15699;SDS011;7950;42.744;23.174;2022-11-21T04:25:18;6.80;;;2.73;;
15699;SDS011;7950;42.744;23.174;2022-11-21T04:27:47;9.00;;;3.10;;
15699;SDS011;7950;42.744;23.174;2022-11-21T04:30:15;14.10;;;3.20;;
15699;SDS011;7950;42.744;23.174;2022-11-21T04:32:43;8.87;;;3.27;;
15699;SDS011;7950;42.744;23.174;2022-11-21T04:35:13;8.93;;;3.60;;
15699;SDS011;7950;42.744;23.174;2022-11-21T04:37:42;5.97;;;3.10;;
15699;SDS011;7950;42.744;23.174;2022-11-21T04:40:11;9.00;;;3.67;;
15699;SDS011;7950;42.744;23.174;2022-11-21T04:42:40;7.27;;;3.10;;
15699;SDS011;7950;42.744;23.174;2022-11-21T04:45:09;8.63;;;3.60;;
15699;SDS011;7950;42.744;23.174;2022-11-21T04:47:38;8.93;;;3.20;;
15699;SDS011;7950;42.744;23.174;2022-11-21T04:53:02;10.57;;;3.37;;
15699;SDS011;7950;42.744;23.174;2022-11-21T04:55:31;10.27;;;3.10;;
15699;SDS011;7950;42.744;23.174;2022-11-21T04:57:59;9.67;;;3.20;;
15699;SDS011;7950;42.744;23.174;2022-11-21T05:00:27;8.50;;;3.20;;
15699;SDS011;7950;42.744;23.174;2022-11-21T05:03:00;6.57;;;2.10;;
15699;SDS011;7950;42.744;23.174;2022-11-21T05:05:29;9.30;;;2.70;;
15699;SDS011;7950;42.744;23.174;2022-11-21T05:07:57;7.73;;;3.10;;
15699;SDS011;7950;42.744;23.174;2022-11-21T05:10:27;12.97;;;3.60;;
15699;SDS011;7950;42.744;23.174;2022-11-21T05:12:56;5.23;;;2.13;;
15699;SDS011;7950;42.744;23.174;2022-11-21T05:15:42;1.90;;;0.87;;
15699;SDS011;7950;42.744;23.174;2022-11-21T05:18:10;1.20;;;0.90;;
15699;SDS011;7950;42.744;23.174;2022-11-21T05:20:39;1.13;;;0.50;;
15699;SDS011;7950;42.744;23.174;2022-11-21T05:23:07;1.77;;;0.77;;
15699;SDS011;7950;42.744;23.174;2022-11-21T05:25:36;7.93;;;7.23;;
15699;SDS011;7950;42.744;23.174;2022-11-21T05:28:05;1.70;;;1.60;;
15699;SDS011;7950;42.744;23.174;2022-11-21T05:30:33;0.80;;;0.70;;
15699;SDS011;7950;42.744;23.174;2022-11-21T05:33:11;2.67;;;2.47;;
15699;SDS011;7950;42.744;23.174;2022-11-21T05:35:45;0.83;;;0.77;;
15699;SDS011;7950;42.744;23.174;2022-11-21T05:38:13;2.00;;;1.90;;
15699;SDS011;7950;42.744;23.174;2022-11-21T05:40:43;1.33;;;0.70;;
15699;SDS011;7950;42.744;23.174;2022-11-21T05:43:11;1.37;;;1.37;;
15699;SDS011;7950;42.744;23.174;2022-11-21T05:46:17;3.60;;;3.30;;
15699;SDS011;7950;42.744;23.174;2022-11-21T05:48:47;3.13;;;2.93;;
15699;SDS011;7950;42.744;23.174;2022-11-21T05:51:16;3.07;;;2.80;;
15699;SDS011;7950;42.744;23.174;2022-11-21T05:53:46;2.20;;;2.10;;
15699;SDS011;7950;42.744;23.174;2022-11-21T05:56:17;5.17;;;4.73;;
15699;SDS011;7950;42.744;23.174;2022-11-21T05:58:46;2.20;;;2.00;;
15699;SDS011;7950;42.744;23.174;2022-11-21T06:01:14;0.90;;;0.90;;
15699;SDS011;7950;42.744;23.174;2022-11-21T06:04:02;2.20;;;2.10;;
15699;SDS011;7950;42.744;23.174;2022-11-21T06:06:30;2.63;;;2.23;;
15699;SDS011;7950;42.744;23.174;2022-11-21T06:08:58;1.50;;;1.40;;
15699;SDS011;7950;42.744;23.174;2022-11-21T06:11:28;1.23;;;1.10;;
15699;SDS011;7950;42.744;23.174;2022-11-21T06:13:56;1.80;;;1.70;;
15699;SDS011;7950;42.744;23.174;2022-11-21T06:16:25;1.93;;;1.80;;
15699;SDS011;7950;42.744;23.174;2022-11-21T06:18:53;0.97;;;0.97;;
15699;SDS011;7950;42.744;23.174;2022-11-21T06:21:25;9.03;;;8.10;;
15699;SDS011;7950;42.744;23.174;2022-11-21T06:23:54;2.30;;;2.10;;
15699;SDS011;7950;42.744;23.174;2022-11-21T06:26:24;1.97;;;1.60;;
15699;SDS011;7950;42.744;23.174;2022-11-21T06:28:55;1.53;;;1.43;;
15699;SDS011;7950;42.744;23.174;2022-11-21T06:31:24;1.80;;;1.70;;
15699;SDS011;7950;42.744;23.174;2022-11-21T06:33:53;2.63;;;2.43;;
15699;SDS011;7950;42.744;23.174;2022-11-21T06:36:23;6.87;;;4.97;;
15699;SDS011;7950;42.744;23.174;2022-11-21T06:38:55;3.37;;;3.07;;
15699;SDS011;7950;42.744;23.174;2022-11-21T06:41:24;4.27;;;3.23;;
15699;SDS011;7950;42.744;23.174;2022-11-21T06:43:58;2.10;;;1.93;;
15699;SDS011;7950;42.744;23.174;2022-11-21T06:46:27;1.97;;;1.87;;
15699;SDS011;7950;42.744;23.174;2022-11-21T06:48:55;3.57;;;2.90;;
15699;SDS011;7950;42.744;23.174;2022-11-21T06:51:23;2.27;;;1.33;;
15699;SDS011;7950;42.744;23.174;2022-11-21T06:53:53;5.50;;;4.50;;
15699;SDS011;7950;42.744;23.174;2022-11-21T06:56:22;3.27;;;2.60;;
15699;SDS011;7950;42.744;23.174;2022-11-21T06:58:51;1.77;;;1.60;;
15699;SDS011;7950;42.744;23.174;2022-11-21T07:01:21;1.87;;;1.47;;
15699;SDS011;7950;42.744;23.174;2022-11-21T07:03:50;2.60;;;2.40;;
15699;SDS011;7950;42.744;23.174;2022-11-21T07:06:18;1.73;;;1.63;;
15699;SDS011;7950;42.744;23.174;2022-11-21T07:08:47;2.80;;;2.30;;
15699;SDS011;7950;42.744;23.174;2022-11-21T07:11:38;3.43;;;3.10;;
15699;SDS011;7950;42.744;23.174;2022-11-21T07:14:06;3.17;;;2.87;;
15699;SDS011;7950;42.744;23.174;2022-11-21T07:16:36;2.47;;;2.27;;
15699;SDS011;7950;42.744;23.174;2022-11-21T07:19:04;2.27;;;1.97;;
15699;SDS011;7950;42.744;23.174;2022-11-21T07:21:32;1.80;;;1.70;;
15699;SDS011;7950;42.744;23.174;2022-11-21T07:24:01;1.50;;;1.40;;
15699;SDS011;7950;42.744;23.174;2022-11-21T07:26:29;2.03;;;1.93;;
15699;SDS011;7950;42.744;23.174;2022-11-21T07:28:58;2.83;;;2.63;;
15699;SDS011;7950;42.744;23.174;2022-11-21T07:31:26;2.90;;;2.63;;
15699;SDS011;7950;42.744;23.174;2022-11-21T07:33:55;3.43;;;3.10;;
15699;SDS011;7950;42.744;23.174;2022-11-21T07:36:24;3.53;;;3.20;;
15699;SDS011;7950;42.744;23.174;2022-11-21T07:38:52;3.53;;;3.00;;
15699;SDS011;7950;42.744;23.174;2022-11-21T07:41:20;1.30;;;1.20;;
15699;SDS011;7950;42.744;23.174;2022-11-21T07:43:48;1.10;;;1.10;;
15699;SDS011;7950;42.744;23.174;2022-11-21T07:46:16;1.27;;;1.10;;
15699;SDS011;7950;42.744;23.174;2022-11-21T07:48:45;0.77;;;0.77;;
15699;SDS011;7950;42.744;23.174;2022-11-21T07:51:14;1.00;;;0.90;;
15699;SDS011;7950;42.744;23.174;2022-11-21T07:53:42;1.20;;;1.10;;
15699;SDS011;7950;42.744;23.174;2022-11-21T07:56:11;2.33;;;2.13;;
15699;SDS011;7950;42.744;23.174;2022-11-21T07:58:39;1.00;;;1.00;;
15699;SDS011;7950;42.744;23.174;2022-11-21T08:01:08;1.00;;;1.00;;
15699;SDS011;7950;42.744;23.174;2022-11-21T08:03:36;1.70;;;1.60;;
15699;SDS011;7950;42.744;23.174;2022-11-21T08:06:04;1.20;;;1.20;;
15699;SDS011;7950;42.744;23.174;2022-11-21T08:08:34;1.47;;;1.37;;
15699;SDS011;7950;42.744;23.174;2022-11-21T08:11:03;3.60;;;3.20;;
15699;SDS011;7950;42.744;23.174;2022-11-21T08:13:32;2.60;;;2.40;;
15699;SDS011;7950;42.744;23.174;2022-11-21T08:16:01;2.20;;;2.00;;
15699;SDS011;7950;42.744;23.174;2022-11-21T08:18:30;1.00;;;1.00;;
15699;SDS011;7950;42.744;23.174;2022-11-21T08:20:59;1.40;;;1.30;;
15699;SDS011;7950;42.744;23.174;2022-11-21T08:23:28;1.00;;;1.00;;
15699;SDS011;7950;42.744;23.174;2022-11-21T08:25:58;1.30;;;1.20;;
15699;SDS011;7950;42.744;23.174;2022-11-21T08:28:26;1.00;;;1.00;;
15699;SDS011;7950;42.744;23.174;2022-11-21T08:30:54;1.00;;;1.00;;
15699;SDS011;7950;42.744;23.174;2022-11-21T08:33:23;0.90;;;0.90;;
15699;SDS011;7950;42.744;23.174;2022-11-21T08:38:44;2.20;;;1.57;;
15699;SDS011;7950;42.744;23.174;2022-11-21T08:41:13;1.23;;;1.03;;
15699;SDS011;7950;42.744;23.174;2022-11-21T08:43:59;2.00;;;1.40;;
15699;SDS011;7950;42.744;23.174;2022-11-21T08:46:27;1.30;;;1.20;;
15699;SDS011;7950;42.744;23.174;2022-11-21T08:48:58;0.90;;;0.90;;
15699;SDS011;7950;42.744;23.174;2022-11-21T08:51:27;0.80;;;0.80;;
15699;SDS011;7950;42.744;23.174;2022-11-21T08:53:55;0.90;;;0.90;;
15699;SDS011;7950;42.744;23.174;2022-11-21T08:56:25;0.90;;;0.90;;
15699;SDS011;7950;42.744;23.174;2022-11-21T08:58:53;0.87;;;0.87;;
15699;SDS011;7950;42.744;23.174;2022-11-21T09:01:22;1.67;;;1.57;;
15699;SDS011;7950;42.744;23.174;2022-11-21T09:03:50;1.70;;;1.60;;
15699;SDS011;7950;42.744;23.174;2022-11-21T09:06:19;1.40;;;1.30;;
15699;SDS011;7950;42.744;23.174;2022-11-21T09:08:47;1.60;;;1.50;;
15699;SDS011;7950;42.744;23.174;2022-11-21T09:11:15;1.30;;;1.20;;
15699;SDS011;7950;42.744;23.174;2022-11-21T09:13:45;3.23;;;2.70;;
15699;SDS011;7950;42.744;23.174;2022-11-21T09:16:33;2.40;;;2.20;;
15699;SDS011;7950;42.744;23.174;2022-11-21T09:19:26;1.57;;;1.33;;
15699;SDS011;7950;42.744;23.174;2022-11-21T09:21:54;3.83;;;2.77;;
15699;SDS011;7950;42.744;23.174;2022-11-21T09:24:23;2.90;;;2.27;;
15699;SDS011;7950;42.744;23.174;2022-11-21T09:26:51;9.23;;;5.87;;
15699;SDS011;7950;42.744;23.174;2022-11-21T09:29:21;6.87;;;4.63;;
15699;SDS011;7950;42.744;23.174;2022-11-21T09:31:49;2.90;;;2.70;;
15699;SDS011;7950;42.744;23.174;2022-11-21T09:34:17;1.50;;;1.40;;
15699;SDS011;7950;42.744;23.174;2022-11-21T09:36:46;2.20;;;2.00;;
15699;SDS011;7950;42.744;23.174;2022-11-21T09:39:14;2.93;;;2.73;;
15699;SDS011;7950;42.744;23.174;2022-11-21T09:41:58;1.80;;;1.70;;
15699;SDS011;7950;42.744;23.174;2022-11-21T09:44:45;2.30;;;2.20;;
15699;SDS011;7950;42.744;23.174;2022-11-21T09:47:27;2.40;;;2.20;;
15699;SDS011;7950;42.744;23.174;2022-11-21T09:49:57;2.37;;;2.17;;
15699;SDS011;7950;42.744;23.174;2022-11-21T09:52:30;1.90;;;1.80;;
15699;SDS011;7950;42.744;23.174;2022-11-21T09:55:04;2.00;;;1.90;;
15699;SDS011;7950;42.744;23.174;2022-11-21T09:57:34;2.10;;;2.00;;
15699;SDS011;7950;42.744;23.174;2022-11-21T10:00:08;1.80;;;1.70;;
15699;SDS011;7950;42.744;23.174;2022-11-21T10:02:42;1.67;;;1.57;;
15699;SDS011;7950;42.744;23.174;2022-11-21T10:05:11;1.63;;;1.53;;
15699;SDS011;7950;42.744;23.174;2022-11-21T10:07:56;1.70;;;1.60;;
15699;SDS011;7950;42.744;23.174;2022-11-21T10:10:40;3.30;;;3.00;;
15699;SDS011;7950;42.744;23.174;2022-11-21T10:13:22;1.40;;;1.30;;
15699;SDS011;7950;42.744;23.174;2022-11-21T10:16:02;2.03;;;1.73;;
15699;SDS011;7950;42.744;23.174;2022-11-21T10:24:52;2.47;;;2.10;;
15699;SDS011;7950;42.744;23.174;2022-11-21T10:27:26;2.07;;;1.87;;
15699;SDS011;7950;42.744;23.174;2022-11-21T10:30:00;4.40;;;2.90;;
15699;SDS011;7950;42.744;23.174;2022-11-21T10:32:36;1.60;;;1.50;;
15699;SDS011;7950;42.744;23.174;2022-11-21T10:35:11;2.97;;;2.10;;
15699;SDS011;7950;42.744;23.174;2022-11-21T10:37:44;1.50;;;1.40;;
15699;SDS011;7950;42.744;23.174;2022-11-21T10:40:17;1.17;;;1.10;;
15699;SDS011;7950;42.744;23.174;2022-11-21T10:42:56;1.80;;;1.70;;
15699;SDS011;7950;42.744;23.174;2022-11-21T10:45:47;1.67;;;1.30;;
15699;SDS011;7950;42.744;23.174;2022-11-21T10:48:16;2.27;;;1.73;;
15699;SDS011;7950;42.744;23.174;2022-11-21T10:50:57;1.50;;;1.40;;
15699;SDS011;7950;42.744;23.174;2022-11-21T10:53:37;5.20;;;4.70;;
15699;SDS011;7950;42.744;23.174;2022-11-21T10:56:30;2.30;;;1.67;;
15699;SDS011;7950;42.744;23.174;2022-11-21T10:59:01;2.10;;;1.90;;
15699;SDS011;7950;42.744;23.174;2022-11-21T11:01:39;2.40;;;2.20;;
15699;SDS011;7950;42.744;23.174;2022-11-21T11:04:23;2.00;;;1.90;;
15699;SDS011;7950;42.744;23.174;2022-11-21T11:06:54;3.00;;;2.27;;
15699;SDS011;7950;42.744;23.174;2022-11-21T11:09:26;2.03;;;1.93;;
15699;SDS011;7950;42.744;23.174;2022-11-21T11:15:19;2.07;;;1.90;;
15699;SDS011;7950;42.744;23.174;2022-11-21T11:17:50;1.90;;;1.80;;
15699;SDS011;7950;42.744;23.174;2022-11-21T11:20:32;10.07;;;5.40;;
15699;SDS011;7950;42.744;23.174;2022-11-21T11:25:58;1.70;;;1.50;;
15699;SDS011;7950;42.744;23.174;2022-11-21T11:28:32;2.50;;;2.00;;
15699;SDS011;7950;42.744;23.174;2022-11-21T11:31:02;1.80;;;1.70;;
15699;SDS011;7950;42.744;23.174;2022-11-21T11:33:32;1.50;;;1.40;;
15699;SDS011;7950;42.744;23.174;2022-11-21T11:36:07;1.37;;;1.27;;
15699;SDS011;7950;42.744;23.174;2022-11-21T11:38:42;1.27;;;1.27;;
15699;SDS011;7950;42.744;23.174;2022-11-21T11:41:18;1.60;;;1.50;;
15699;SDS011;7950;42.744;23.174;2022-11-21T11:44:26;1.60;;;1.50;;
15699;SDS011;7950;42.744;23.174;2022-11-21T11:47:19;4.13;;;3.03;;
15699;SDS011;7950;42.744;23.174;2022-11-21T11:50:08;3.43;;;2.00;;
15699;SDS011;7950;42.744;23.174;2022-11-21T11:52:45;2.00;;;1.90;;
15699;SDS011;7950;42.744;23.174;2022-11-21T11:55:22;1.97;;;1.33;;
15699;SDS011;7950;42.744;23.174;2022-11-21T11:58:01;1.40;;;1.30;;
15699;SDS011;7950;42.744;23.174;2022-11-21T12:00:37;8.70;;;4.17;;
15699;SDS011;7950;42.744;23.174;2022-11-21T12:03:13;6.23;;;3.13;;
15699;SDS011;7950;42.744;23.174;2022-11-21T12:05:53;3.33;;;1.93;;
15699;SDS011;7950;42.744;23.174;2022-11-21T12:08:38;4.57;;;2.13;;
15699;SDS011;7950;42.744;23.174;2022-11-21T12:14:37;1.83;;;1.40;;
15699;SDS011;7950;42.744;23.174;2022-11-21T12:17:39;1.17;;;1.10;;
15699;SDS011;7950;42.744;23.174;2022-11-21T12:20:12;4.07;;;1.70;;
15699;SDS011;7950;42.744;23.174;2022-11-21T12:23:01;1.93;;;1.73;;
15699;SDS011;7950;42.744;23.174;2022-11-21T12:25:35;1.27;;;1.17;;
15699;SDS011;7950;42.744;23.174;2022-11-21T12:28:06;1.37;;;1.20;;
15699;SDS011;7950;42.744;23.174;2022-11-21T12:31:13;3.30;;;2.03;;
15699;SDS011;7950;42.744;23.174;2022-11-21T12:33:50;3.70;;;2.60;;
15699;SDS011;7950;42.744;23.174;2022-11-21T12:36:30;1.50;;;1.40;;
15699;SDS011;7950;42.744;23.174;2022-11-21T12:39:08;1.47;;;1.37;;
15699;SDS011;7950;42.744;23.174;2022-11-21T12:41:50;1.43;;;1.33;;
15699;SDS011;7950;42.744;23.174;2022-11-21T12:44:45;1.70;;;1.60;;
15699;SDS011;7950;42.744;23.174;2022-11-21T12:47:29;1.70;;;1.60;;
15699;SDS011;7950;42.744;23.174;2022-11-21T12:50:31;1.93;;;1.83;;
15699;SDS011;7950;42.744;23.174;2022-11-21T12:53:25;2.10;;;1.97;;
15699;SDS011;7950;42.744;23.174;2022-11-21T12:56:18;1.80;;;1.70;;
15699;SDS011;7950;42.744;23.174;2022-11-21T12:58:56;2.27;;;2.07;;
15699;SDS011;7950;42.744;23.174;2022-11-21T13:01:28;2.13;;;2.03;;
15699;SDS011;7950;42.744;23.174;2022-11-21T13:04:07;2.53;;;2.20;;
15699;SDS011;7950;42.744;23.174;2022-11-21T13:06:41;2.40;;;2.20;;
15699;SDS011;7950;42.744;23.174;2022-11-21T13:09:13;2.63;;;2.23;;
15699;SDS011;7950;42.744;23.174;2022-11-21T13:11:45;2.50;;;2.30;;
15699;SDS011;7950;42.744;23.174;2022-11-21T13:14:30;2.43;;;2.23;;
15699;SDS011;7950;42.744;23.174;2022-11-21T13:17:08;3.63;;;2.90;;
15699;SDS011;7950;42.744;23.174;2022-11-21T13:19:53;3.27;;;2.97;;
15699;SDS011;7950;42.744;23.174;2022-11-21T13:33:57;2.70;;;2.50;;
15699;SDS011;7950;42.744;23.174;2022-11-21T13:36:33;3.17;;;2.73;;
15699;SDS011;7950;42.744;23.174;2022-11-21T13:42:02;3.80;;;3.13;;
15699;SDS011;7950;42.744;23.174;2022-11-21T13:44:52;3.30;;;2.80;;
15699;SDS011;7950;42.744;23.174;2022-11-21T13:47:37;3.87;;;3.07;;
15699;SDS011;7950;42.744;23.174;2022-11-21T13:53:39;3.77;;;3.07;;
15699;SDS011;7950;42.744;23.174;2022-11-21T13:56:24;2.93;;;2.70;;
15699;SDS011;7950;42.744;23.174;2022-11-21T13:59:00;3.70;;;3.30;;
15699;SDS011;7950;42.744;23.174;2022-11-21T14:01:52;3.10;;;2.90;;
15699;SDS011;7950;42.744;23.174;2022-11-21T14:07:31;3.93;;;2.93;;
15699;SDS011;7950;42.744;23.174;2022-11-21T14:10:02;3.53;;;3.10;;
15699;SDS011;7950;42.744;23.174;2022-11-21T14:12:33;3.27;;;2.97;;
15699;SDS011;7950;42.744;23.174;2022-11-21T14:15:16;5.07;;;3.10;;
15699;SDS011;7950;42.744;23.174;2022-11-21T14:17:52;3.07;;;2.87;;
15699;SDS011;7950;42.744;23.174;2022-11-21T14:20:23;3.20;;;3.00;;
15699;SDS011;7950;42.744;23.174;2022-11-21T14:22:55;4.17;;;3.13;;
15699;SDS011;7950;42.744;23.174;2022-11-21T14:25:28;3.20;;;2.90;;
15699;SDS011;7950;42.744;23.174;2022-11-21T14:28:02;2.80;;;2.60;;
15699;SDS011;7950;42.744;23.174;2022-11-21T14:30:34;3.13;;;2.73;;
15699;SDS011;7950;42.744;23.174;2022-11-21T14:33:16;3.30;;;3.10;;
15699;SDS011;7950;42.744;23.174;2022-11-21T14:35:56;2.93;;;2.73;;
15699;SDS011;7950;42.744;23.174;2022-11-21T14:38:27;3.33;;;3.03;;
15699;SDS011;7950;42.744;23.174;2022-11-21T14:44:02;4.27;;;2.87;;
15699;SDS011;7950;42.744;23.174;2022-11-21T14:46:41;3.50;;;3.20;;
15699;SDS011;7950;42.744;23.174;2022-11-21T14:49:17;8.73;;;6.83;;
15699;SDS011;7950;42.744;23.174;2022-11-21T14:51:49;6.90;;;6.30;;
15699;SDS011;7950;42.744;23.174;2022-11-21T14:54:20;3.37;;;3.17;;
15699;SDS011;7950;42.744;23.174;2022-11-21T14:56:53;4.20;;;3.80;;
15699;SDS011;7950;42.744;23.174;2022-11-21T14:59:25;3.67;;;3.37;;
15699;SDS011;7950;42.744;23.174;2022-11-21T15:01:56;3.67;;;3.30;;
15699;SDS011;7950;42.744;23.174;2022-11-21T15:04:28;3.57;;;3.27;;
15699;SDS011;7950;42.744;23.174;2022-11-21T15:07:00;3.30;;;3.00;;
15699;SDS011;7950;42.744;23.174;2022-11-21T15:09:29;3.10;;;2.90;;
15699;SDS011;7950;42.744;23.174;2022-11-21T15:12:20;3.10;;;2.90;;
15699;SDS011;7950;42.744;23.174;2022-11-21T15:14:55;4.37;;;3.90;;
15699;SDS011;7950;42.744;23.174;2022-11-21T15:17:26;4.63;;;4.10;;
15699;SDS011;7950;42.744;23.174;2022-11-21T15:20:02;3.57;;;3.27;;
15699;SDS011;7950;42.744;23.174;2022-11-21T15:22:38;4.07;;;3.23;;
15699;SDS011;7950;42.744;23.174;2022-11-21T15:25:12;3.30;;;3.00;;
15699;SDS011;7950;42.744;23.174;2022-11-21T15:27:44;3.17;;;2.97;;
15699;SDS011;7950;42.744;23.174;2022-11-21T15:30:25;4.10;;;3.70;;
15699;SDS011;7950;42.744;23.174;2022-11-21T15:33:05;4.00;;;3.70;;
15699;SDS011;7950;42.744;23.174;2022-11-21T15:35:44;4.27;;;3.87;;
15699;SDS011;7950;42.744;23.174;2022-11-21T15:38:15;3.97;;;3.67;;
15699;SDS011;7950;42.744;23.174;2022-11-21T15:40:58;5.23;;;4.60;;
15699;SDS011;7950;42.744;23.174;2022-11-21T15:43:31;5.10;;;4.40;;
15699;SDS011;7950;42.744;23.174;2022-11-21T15:46:00;7.17;;;5.50;;
15699;SDS011;7950;42.744;23.174;2022-11-21T15:48:29;7.47;;;5.83;;
15699;SDS011;7950;42.744;23.174;2022-11-21T15:50:57;8.50;;;6.43;;
15699;SDS011;7950;42.744;23.174;2022-11-21T15:53:27;8.13;;;5.93;;
15699;SDS011;7950;42.744;23.174;2022-11-21T15:55:55;10.10;;;6.40;;
15699;SDS011;7950;42.744;23.174;2022-11-21T15:58:24;7.73;;;6.00;;
15699;SDS011;7950;42.744;23.174;2022-11-21T16:00:52;6.93;;;5.30;;
15699;SDS011;7950;42.744;23.174;2022-11-21T16:03:21;6.17;;;4.90;;
15699;SDS011;7950;42.744;23.174;2022-11-21T16:05:49;14.23;;;8.63;;
15699;SDS011;7950;42.744;23.174;2022-11-21T16:08:17;4.97;;;4.47;;
15699;SDS011;7950;42.744;23.174;2022-11-21T16:10:53;4.67;;;4.07;;